TimeCST,TemperatureF,Dew PointF,Humidity,Sea Level PressureIn,VisibilityMPH,Wind Direction,Wind SpeedMPH,Gust SpeedMPH,PrecipitationIn,Events,Conditions,WindDirDegrees,DateUTC
12:14 AM,37.4,28.4,70,29.90,10.0,SE,5.8,-,N/A,,Clear,130,2012-11-21 06:14:00
12:33 AM,35.6,28.4,75,29.90,10.0,SSE,4.6,-,N/A,,Clear,160,2012-11-21 06:33:00
12:54 AM,37.4,28.4,70,29.90,10.0,SSE,4.6,-,N/A,,Clear,160,2012-11-21 06:54:00
1:14 AM,37.4,28.4,70,29.90,10.0,South,4.6,-,N/A,,Clear,170,2012-11-21 07:14:00
1:33 AM,35.6,28.4,75,29.89,10.0,South,6.9,-,N/A,,Clear,180,2012-11-21 07:33:00
1:54 AM,35.6,28.4,75,29.90,10.0,Calm,Calm,-,N/A,,Clear,0,2012-11-21 07:54:00
2:14 AM,35.6,28.4,75,29.90,10.0,SW,4.6,-,N/A,,Clear,230,2012-11-21 08:14:00
2:34 AM,37.4,28.4,70,29.90,10.0,SW,3.5,-,N/A,,Clear,230,2012-11-21 08:34:00
2:54 AM,35.6,28.4,75,29.90,10.0,WSW,3.5,-,N/A,,Clear,240,2012-11-21 08:54:00
3:13 AM,39.2,30.2,70,29.90,10.0,WSW,5.8,-,N/A,,Clear,250,2012-11-21 09:13:00
3:34 AM,37.4,30.2,75,29.90,10.0,Calm,Calm,-,N/A,,Clear,0,2012-11-21 09:34:00
3:54 AM,35.6,28.4,75,29.89,10.0,Calm,Calm,-,N/A,,Clear,0,2012-11-21 09:54:00
4:13 AM,33.8,26.6,75,29.89,10.0,Calm,Calm,-,N/A,,Clear,0,2012-11-21 10:13:00
4:34 AM,33.8,28.4,81,29.89,10.0,SSE,3.5,-,N/A,,Clear,160,2012-11-21 10:34:00
4:54 AM,35.6,28.4,75,29.90,10.0,SE,8.1,-,N/A,,Clear,140,2012-11-21 10:54:00
5:14 AM,33.8,28.4,81,29.90,10.0,Calm,Calm,-,N/A,,Clear,0,2012-11-21 11:14:00
5:34 AM,33.8,28.4,81,29.90,10.0,SSE,6.9,-,N/A,,Clear,160,2012-11-21 11:34:00
5:54 AM,33.8,28.4,81,29.90,10.0,South,5.8,-,N/A,,Clear,180,2012-11-21 11:54:00
6:14 AM,35.6,28.4,75,29.90,10.0,South,6.9,-,N/A,,Clear,190,2012-11-21 12:14:00
6:34 AM,35.6,28.4,75,29.89,10.0,South,4.6,-,N/A,,Clear,190,2012-11-21 12:34:00
6:54 AM,35.6,28.4,75,29.89,10.0,Calm,Calm,-,N/A,,Clear,0,2012-11-21 12:54:00
7:14 AM,35.6,28.4,75,29.89,10.0,Calm,Calm,-,N/A,,Clear,0,2012-11-21 13:14:00
7:34 AM,35.6,28.4,75,29.89,10.0,SSW,4.6,-,N/A,,Clear,200,2012-11-21 13:34:00
7:53 AM,35.6,28.4,75,29.89,10.0,SSW,3.5,-,N/A,,Clear,210,2012-11-21 13:53:00
8:14 AM,35.6,28.4,75,29.89,10.0,Calm,Calm,-,N/A,,Clear,0,2012-11-21 14:14:00
8:34 AM,35.6,28.4,75,29.88,10.0,Calm,Calm,-,N/A,,Clear,0,2012-11-21 14:34:00
8:53 AM,35.6,30.2,81,29.89,10.0,South,6.9,-,N/A,,Clear,180,2012-11-21 14:53:00
9:14 AM,39.2,30.2,70,29.88,10.0,SSE,4.6,-,N/A,,Clear,160,2012-11-21 15:14:00
9:34 AM,41.0,32.0,70,29.86,10.0,South,5.8,-,N/A,,Clear,170,2012-11-21 15:34:00
9:53 AM,44.6,33.8,66,29.86,10.0,South,5.8,-,N/A,,Clear,170,2012-11-21 15:53:00
10:14 AM,44.6,33.8,66,29.86,10.0,South,5.8,-,N/A,,Clear,170,2012-11-21 16:14:00
10:33 AM,48.2,33.8,58,29.85,10.0,South,3.5,-,N/A,,Clear,170,2012-11-21 16:33:00
11:14 AM,51.8,35.6,54,29.83,10.0,SE,5.8,-,N/A,,Clear,140,2012-11-21 17:14:00
11:33 AM,53.6,35.6,51,29.82,10.0,SE,8.1,-,N/A,,Clear,140,2012-11-21 17:33:00
11:54 AM,55.4,35.6,47,29.81,10.0,SE,9.2,-,N/A,,Clear,140,2012-11-21 17:54:00
12:14 PM,57.2,35.6,44,29.80,10.0,SSE,8.1,-,N/A,,Clear,150,2012-11-21 18:14:00
12:34 PM,57.2,35.6,44,29.79,10.0,SSE,10.4,-,N/A,,Clear,150,2012-11-21 18:34:00
12:54 PM,60.8,35.6,39,29.78,10.0,ESE,8.1,-,N/A,,Clear,120,2012-11-21 18:54:00
1:14 PM,60.8,35.6,39,29.77,10.0,SE,11.5,-,N/A,,Clear,140,2012-11-21 19:14:00
1:34 PM,60.8,35.6,39,29.76,10.0,SE,12.7,18.4,N/A,,Clear,140,2012-11-21 19:34:00
1:54 PM,62.6,35.6,37,29.75,10.0,SE,12.7,-,N/A,,Clear,140,2012-11-21 19:54:00
2:14 PM,62.6,37.4,39,29.72,10.0,ESE,9.2,-,N/A,,Clear,120,2012-11-21 20:14:00
2:34 PM,62.6,37.4,39,29.71,10.0,SE,12.7,-,N/A,,Clear,130,2012-11-21 20:34:00
2:54 PM,64.4,33.8,32,29.71,10.0,SSE,13.8,-,N/A,,Clear,150,2012-11-21 20:54:00
3:13 PM,62.6,33.8,34,29.70,10.0,SSE,12.7,18.4,N/A,,Clear,150,2012-11-21 21:13:00
3:34 PM,60.8,33.8,36,29.70,10.0,SE,15.0,-,N/A,,Clear,140,2012-11-21 21:34:00
3:59 PM,57.2,35.6,44,29.69,10.0,SE,11.5,-,N/A,,Clear,140,2012-11-21 21:59:00
4:13 PM,57.2,35.6,44,29.68,10.0,SE,10.4,-,N/A,,Clear,140,2012-11-21 22:13:00
4:34 PM,55.4,35.6,47,29.68,10.0,SE,10.4,-,N/A,,Clear,130,2012-11-21 22:34:00
4:54 PM,53.6,35.6,51,29.66,10.0,SE,9.2,-,N/A,,Clear,130,2012-11-21 22:54:00
5:13 PM,51.8,35.6,54,29.66,10.0,SE,10.4,-,N/A,,Clear,140,2012-11-21 23:13:00
5:34 PM,51.8,35.6,54,29.65,10.0,SE,9.2,-,N/A,,Clear,130,2012-11-21 23:34:00
5:54 PM,51.8,35.6,54,29.65,10.0,SE,6.9,-,N/A,,Clear,130,2012-11-21 23:54:00
6:14 PM,48.2,33.8,58,29.65,10.0,SE,5.8,-,N/A,,Clear,130,2012-11-22 00:14:00
6:34 PM,48.2,33.8,58,29.64,10.0,SE,6.9,-,N/A,,Clear,140,2012-11-22 00:34:00
6:53 PM,48.2,33.8,58,29.63,10.0,SE,6.9,-,N/A,,Clear,130,2012-11-22 00:53:00
7:14 PM,48.2,33.8,58,29.63,10.0,SE,8.1,-,N/A,,Clear,140,2012-11-22 01:14:00
7:34 PM,48.2,33.8,58,29.62,10.0,SE,6.9,-,N/A,,Clear,140,2012-11-22 01:34:00
7:54 PM,48.2,33.8,58,29.62,10.0,SE,6.9,-,N/A,,Clear,140,2012-11-22 01:54:00
8:14 PM,48.2,33.8,58,29.61,10.0,SE,6.9,-,N/A,,Clear,140,2012-11-22 02:14:00
8:34 PM,46.4,32.0,57,29.61,10.0,SSE,5.8,-,N/A,,Clear,150,2012-11-22 02:34:00
8:54 PM,46.4,32.0,57,29.60,10.0,South,6.9,-,N/A,,Clear,180,2012-11-22 02:54:00
9:14 PM,53.6,32.0,44,29.60,10.0,SSW,6.9,-,N/A,,Clear,200,2012-11-22 03:14:00
9:33 PM,55.4,30.2,38,29.59,10.0,SSW,5.8,-,N/A,,Clear,210,2012-11-22 03:33:00
9:54 PM,57.2,30.2,36,29.58,10.0,SW,9.2,-,N/A,,Clear,230,2012-11-22 03:54:00
10:14 PM,57.2,30.2,36,29.58,10.0,SW,9.2,-,N/A,,Clear,220,2012-11-22 04:14:00
10:34 PM,57.2,30.2,36,29.57,10.0,SW,9.2,18.4,N/A,,Clear,230,2012-11-22 04:34:00
10:54 PM,55.4,30.2,38,29.57,10.0,SW,6.9,-,N/A,,Clear,220,2012-11-22 04:54:00
11:14 PM,55.4,30.2,38,29.57,10.0,SSW,4.6,-,N/A,,Clear,200,2012-11-22 05:14:00
11:34 PM,53.6,30.2,41,29.56,10.0,SSW,6.9,-,N/A,,Clear,200,2012-11-22 05:34:00
11:54 PM,51.8,30.2,44,29.56,10.0,South,5.8,-,N/A,,Clear,190,2012-11-22 05:54:00